Time;durP1;ratioP1;P1;durP2;ratioP2;P2;SDS_P1;SDS_P2;PMS_P1;PMS_P2;Temp;Humidity;BMP_temperature;BMP_pressure;BME280_temperature;BME280_humidity;BME280_pressure;Samples;Min_cycle;Max_cycle;Signal;HPM_P1;HPM_P2
2021/03/24 00:00:11;;;;;;;36.58;18.27;;;2.90;99.90;;;;;;5045328;28;20545;-89
2021/03/24 00:02:37;;;;;;;43.47;18.33;;;2.80;99.90;;;;;;5049031;28;20036;-86
2021/03/24 00:05:11;;;;;;;35.63;16.23;;;2.80;99.90;;;;;;5069945;28;20074;-86
2021/03/24 00:07:38;;;;;;;35.50;16.52;;;2.90;99.90;;;;;;5069785;28;20013;-88
2021/03/24 00:10:06;;;;;;;37.92;17.85;;;2.70;99.90;;;;;;5086677;28;20016;-87
2021/03/24 00:12:34;;;;;;;40.17;17.98;;;2.50;99.90;;;;;;5069996;28;20032;-85
2021/03/24 00:15:00;;;;;;;38.05;16.63;;;2.40;99.90;;;;;;5069882;28;20004;-88
2021/03/24 00:17:26;;;;;;;34.33;16.13;;;2.50;99.90;;;;;;5086300;28;20012;-88
2021/03/24 00:19:52;;;;;;;42.60;18.63;;;2.60;99.90;;;;;;5050647;28;20077;-89
2021/03/24 00:22:17;;;;;;;33.60;17.52;;;2.60;99.90;;;;;;5046338;28;20021;-90
2021/03/24 00:24:43;;;;;;;38.20;16.63;;;2.50;99.90;;;;;;5047089;28;20021;-88
2021/03/24 00:27:09;;;;;;;39.72;17.67;;;2.50;99.90;;;;;;5047853;28;20060;-89
2021/03/24 00:29:34;;;;;;;39.67;16.60;;;2.70;99.90;;;;;;5055987;28;20024;-88
2021/03/24 00:32:00;;;;;;;36.72;17.65;;;2.60;99.90;;;;;;5063649;28;20051;-89
2021/03/24 00:34:26;;;;;;;38.17;17.55;;;2.60;99.90;;;;;;5046911;28;20031;-88
2021/03/24 00:36:51;;;;;;;36.13;18.40;;;2.60;99.90;;;;;;5046605;28;20037;-89
2021/03/24 00:39:17;;;;;;;34.33;16.65;;;2.60;99.90;;;;;;5063558;28;20024;-90
2021/03/24 00:41:43;;;;;;;37.45;18.55;;;2.60;99.90;;;;;;5047094;28;20028;-90
2021/03/24 00:44:09;;;;;;;39.33;16.85;;;2.70;99.90;;;;;;5047002;28;20115;-90
2021/03/24 00:46:35;;;;;;;31.63;17.00;;;2.80;99.90;;;;;;5046956;28;20397;-89
2021/03/24 00:49:01;;;;;;;41.40;17.88;;;2.80;99.90;;;;;;5046462;28;20104;-90
2021/03/24 00:51:26;;;;;;;38.88;17.95;;;2.80;99.90;;;;;;5045798;28;20021;-90
2021/03/24 00:53:52;;;;;;;36.40;16.60;;;2.70;99.90;;;;;;5045414;28;20031;-90
2021/03/24 00:56:17;;;;;;;33.28;18.10;;;2.80;99.90;;;;;;5045371;28;20415;-89
2021/03/24 00:58:43;;;;;;;44.28;18.80;;;2.70;99.90;;;;;;5044836;28;20373;-90
2021/03/24 01:01:09;;;;;;;46.53;19.55;;;2.70;99.90;;;;;;5045024;28;20377;-89
2021/03/24 01:03:37;;;;;;;40.03;17.13;;;2.70;99.90;;;;;;5044984;28;20073;-90
2021/03/24 01:06:02;;;;;;;43.83;19.85;;;2.80;99.90;;;;;;5041417;28;20073;-90
2021/03/24 01:08:28;;;;;;;33.42;17.33;;;2.70;99.90;;;;;;5041060;28;20024;-90
2021/03/24 01:10:56;;;;;;;46.60;18.48;;;2.70;99.90;;;;;;5041972;28;20025;-90
2021/03/24 01:13:24;;;;;;;40.40;18.52;;;2.70;99.90;;;;;;5041839;28;20020;-91
2021/03/24 01:15:50;;;;;;;38.83;18.92;;;2.50;99.90;;;;;;5044691;28;20025;-89
2021/03/24 01:18:17;;;;;;;38.47;19.33;;;2.40;99.90;;;;;;5053251;28;20021;-89
2021/03/24 01:20:43;;;;;;;44.38;19.30;;;2.40;99.90;;;;;;5044817;28;20427;-90
2021/03/24 01:23:10;;;;;;;41.65;18.85;;;2.50;99.90;;;;;;5041350;28;20165;-90
2021/03/24 01:25:37;;;;;;;40.03;19.15;;;2.50;99.90;;;;;;5041293;28;20107;-90
2021/03/24 01:28:09;;;;;;;39.67;19.58;;;2.50;99.90;;;;;;5040647;28;20029;-90
2021/03/24 01:30:36;;;;;;;41.80;19.25;;;2.60;99.90;;;;;;5040621;28;20032;-91
2021/03/24 01:33:02;;;;;;;39.40;20.38;;;2.50;99.90;;;;;;5041289;28;20021;-91
2021/03/24 01:35:28;;;;;;;38.33;20.08;;;2.50;99.90;;;;;;5041317;28;20036;-89
2021/03/24 01:37:54;;;;;;;41.42;19.17;;;2.30;99.90;;;;;;5040768;28;20020;-88
2021/03/24 01:40:26;;;;;;;39.97;18.83;;;2.10;99.90;;;;;;5040067;28;20025;-88
2021/03/24 01:43:02;;;;;;;;;;;2.00;99.90;;;;;;5041012;28;20020;-89
2021/03/24 01:45:28;;;;;;;45.78;18.10;;;2.10;99.90;;;;;;5040297;28;20356;-89
2021/03/24 01:47:56;;;;;;;48.28;19.10;;;2.10;99.90;;;;;;5040502;28;20024;-89
2021/03/24 01:50:30;;;;;;;38.58;17.98;;;2.20;99.90;;;;;;5039863;28;20023;-90
2021/03/24 01:52:56;;;;;;;37.65;19.15;;;2.30;99.90;;;;;;5040133;28;20107;-89
2021/03/24 01:55:22;;;;;;;41.92;19.08;;;2.30;99.90;;;;;;5040255;28;20060;-89
2021/03/24 01:57:48;;;;;;;40.58;17.77;;;2.30;99.90;;;;;;5040357;28;20036;-89
2021/03/24 02:00:26;;;;;;;45.95;19.13;;;2.20;99.90;;;;;;5039726;28;20020;-89
2021/03/24 02:02:51;;;;;;;35.47;16.80;;;2.20;99.90;;;;;;5056550;28;20112;-88
2021/03/24 02:05:17;;;;;;;39.75;18.45;;;2.20;99.90;;;;;;5039305;28;20162;-90
2021/03/24 02:26:31;;;;;;;40.25;17.63;;;2.00;99.90;;;;;;5074066;28;20439;-89
2021/03/24 02:28:59;;;;;;;41.22;17.65;;;1.90;99.90;;;;;;5039201;28;20396;-89
2021/03/24 02:31:28;;;;;;;33.78;16.30;;;2.00;99.90;;;;;;5057446;28;20028;-89
2021/03/24 02:33:56;;;;;;;36.20;18.45;;;2.10;99.90;;;;;;5059172;28;20119;-84
2021/03/24 02:36:24;;;;;;;30.50;15.45;;;2.00;99.90;;;;;;5043293;28;20028;-88
2021/03/24 02:38:53;;;;;;;41.08;17.90;;;1.90;99.90;;;;;;5039627;28;20404;-88
2021/03/24 02:41:20;;;;;;;33.28;17.17;;;2.00;99.90;;;;;;5039609;28;20028;-88
2021/03/24 02:43:46;;;;;;;37.30;16.70;;;1.90;99.90;;;;;;5039749;28;20024;-87
2021/03/24 02:46:14;;;;;;;34.05;16.20;;;2.00;99.90;;;;;;5039891;28;20029;-88
2021/03/24 02:48:41;;;;;;;30.08;15.68;;;1.90;99.90;;;;;;5038887;28;20036;-88
2021/03/24 02:51:12;;;;;;;34.75;17.30;;;2.10;99.90;;;;;;5038894;28;20037;-87
2021/03/24 02:53:39;;;;;;;35.15;17.67;;;2.00;99.90;;;;;;5055544;28;20541;-88
2021/03/24 02:56:07;;;;;;;32.58;17.63;;;2.00;99.90;;;;;;5038501;28;20469;-88
2021/03/24 02:58:34;;;;;;;31.95;15.68;;;2.10;99.90;;;;;;5038240;28;20027;-88
2021/03/24 03:01:07;;;;;;;36.00;17.65;;;2.00;99.90;;;;;;5038382;28;20024;-88
2021/03/24 03:03:40;;;;;;;34.90;15.80;;;2.00;99.90;;;;;;5055762;28;20032;-89
2021/03/24 03:06:10;;;;;;;40.60;17.15;;;2.00;99.90;;;;;;5039340;28;20025;-89
2021/03/24 03:08:43;;;;;;;33.95;16.52;;;2.10;99.90;;;;;;5038778;28;20111;-90
2021/03/24 03:11:51;;;;;;;35.75;16.48;;;2.00;99.90;;;;;;5039203;28;20055;-90
2021/03/24 03:14:26;;;;;;;36.75;16.13;;;1.90;99.90;;;;;;5040022;28;20024;-89
2021/03/24 03:17:09;;;;;;;36.00;16.17;;;1.80;99.90;;;;;;5040955;28;20021;-90
2021/03/24 03:19:41;;;;;;;39.35;15.60;;;1.60;99.90;;;;;;5040335;28;20059;-89
2021/03/24 03:22:35;;;;;;;33.45;16.15;;;1.60;99.90;;;;;;5039958;28;20020;-90
2021/03/24 03:25:21;;;;;;;35.72;15.18;;;1.70;99.90;;;;;;5034691;28;20059;-90
2021/03/24 03:27:50;;;;;;;35.92;15.95;;;1.80;99.90;;;;;;5056200;28;20055;-90
2021/03/24 03:30:17;;;;;;;35.15;16.15;;;1.90;99.90;;;;;;5040127;28;20081;-89
2021/03/24 03:32:45;;;;;;;36.90;16.48;;;1.80;99.90;;;;;;5040004;28;20040;-89
2021/03/24 03:35:19;;;;;;;40.30;16.65;;;1.90;99.90;;;;;;5040212;28;20102;-89
2021/03/24 03:37:45;;;;;;;36.05;16.10;;;2.00;99.90;;;;;;5039100;28;20025;-90
2021/03/24 03:40:15;;;;;;;34.97;15.60;;;2.10;99.90;;;;;;5055245;28;20050;-91
2021/03/24 03:42:41;;;;;;;25.02;12.52;;;1.90;99.90;;;;;;5055189;28;20402;-90
2021/03/24 03:45:09;;;;;;;38.85;15.82;;;1.80;99.90;;;;;;5073272;28;20039;-91
2021/03/24 03:47:35;;;;;;;27.63;13.40;;;1.70;99.90;;;;;;5055290;28;20035;-90
2021/03/24 03:50:00;;;;;;;35.53;14.30;;;1.70;99.90;;;;;;5038303;28;20412;-90
2021/03/24 03:52:36;;;;;;;35.13;15.13;;;1.50;99.90;;;;;;5038834;28;20028;-90
2021/03/24 03:55:35;;;;;;;29.45;13.68;;;1.40;99.90;;;;;;5039150;28;20107;-90
2021/03/24 03:58:26;;;;;;;29.80;12.60;;;1.40;99.90;;;;;;5038426;28;20488;-90
2021/03/24 04:01:06;;;;;;;33.17;12.80;;;1.30;99.90;;;;;;5038560;28;20544;-90
2021/03/24 04:03:38;;;;;;;28.02;13.95;;;1.30;99.90;;;;;;5055186;28;20040;-90
2021/03/24 04:06:11;;;;;;;27.45;12.48;;;1.30;99.90;;;;;;5038449;28;20029;-90
2021/03/24 04:08:37;;;;;;;30.63;12.23;;;1.40;99.90;;;;;;5038365;28;20031;-90
2021/03/24 04:11:09;;;;;;;29.90;15.50;;;1.40;99.90;;;;;;5038200;28;20028;-90
2021/03/24 04:13:41;;;;;;;31.55;12.95;;;1.30;99.90;;;;;;5055277;28;20431;-90
2021/03/24 04:16:07;;;;;;;38.55;12.95;;;1.20;99.90;;;;;;5038529;28;20495;-90
2021/03/24 04:18:46;;;;;;;26.70;13.50;;;1.20;99.90;;;;;;5055228;28;20497;-91
2021/03/24 04:21:13;;;;;;;25.45;12.68;;;1.30;99.90;;;;;;5055004;28;20033;-90
2021/03/24 04:23:45;;;;;;;34.15;12.70;;;1.50;99.90;;;;;;5038698;28;20028;-90
2021/03/24 04:26:16;;;;;;;27.83;12.30;;;1.70;99.90;;;;;;5038231;28;20055;-89
2021/03/24 04:28:46;;;;;;;32.95;12.88;;;1.60;99.90;;;;;;5045087;28;20124;-90
2021/03/24 04:31:14;;;;;;;28.27;12.13;;;1.40;99.90;;;;;;5054458;28;20112;-90
2021/03/24 04:33:40;;;;;;;25.73;11.15;;;1.10;99.90;;;;;;5066820;28;20053;-92
2021/03/24 04:36:15;;;;;;;25.00;11.40;;;1.10;99.90;;;;;;5062363;28;20055;-90
2021/03/24 04:38:46;;;;;;;23.35;11.40;;;1.40;99.90;;;;;;5039123;28;20104;-89
2021/03/24 04:41:19;;;;;;;32.35;13.20;;;1.30;99.90;;;;;;5041090;28;20024;-89
2021/03/24 04:43:51;;;;;;;23.63;11.70;;;1.30;99.90;;;;;;5075458;28;20082;-89
2021/03/24 04:46:24;;;;;;;30.20;13.77;;;1.20;99.90;;;;;;5042470;28;20488;-89
2021/03/24 04:48:56;;;;;;;23.98;11.07;;;1.30;99.90;;;;;;5042033;28;20032;-90
2021/03/24 04:51:25;;;;;;;25.42;12.27;;;1.30;99.90;;;;;;5042089;28;20028;-89
2021/03/24 04:54:17;;;;;;;30.45;12.93;;;1.20;99.90;;;;;;5041981;28;20115;-90
2021/03/24 04:56:49;;;;;;;26.55;12.38;;;1.00;99.90;;;;;;5026475;28;20413;-90
2021/03/24 04:59:22;;;;;;;24.58;11.68;;;0.90;99.90;;;;;;5041863;28;20048;-90
2021/03/24 05:02:06;;;;;;;25.38;11.95;;;0.90;99.90;;;;;;5042012;28;20028;-89
2021/03/24 05:04:51;;;;;;;25.83;11.70;;;1.00;99.90;;;;;;5041934;28;20025;-89
2021/03/24 05:07:35;;;;;;;21.63;11.13;;;1.20;99.90;;;;;;5041896;28;20496;-90
2021/03/24 05:10:02;;;;;;;28.95;11.50;;;1.30;99.90;;;;;;5041913;28;20063;-91
2021/03/24 05:12:39;;;;;;;23.25;11.43;;;1.50;99.90;;;;;;5041647;28;20025;-91
2021/03/24 05:15:12;;;;;;;25.45;10.35;;;1.70;99.90;;;;;;5041482;28;20469;-90
2021/03/24 05:17:41;;;;;;;22.33;9.95;;;1.60;99.90;;;;;;5041396;28;20115;-91
2021/03/24 05:20:22;;;;;;;20.65;11.40;;;1.80;99.90;;;;;;5041176;28;20032;-90
2021/03/24 05:22:48;;;;;;;25.52;11.55;;;1.90;99.90;;;;;;5041474;28;20099;-91
2021/03/24 05:25:33;;;;;;;23.08;10.25;;;1.90;99.90;;;;;;5041331;28;20135;-90
2021/03/24 05:28:38;;;;;;;19.38;9.73;;;1.90;99.90;;;;;;5041509;28;20036;-90
2021/03/24 05:31:13;;;;;;;30.17;11.00;;;2.00;99.90;;;;;;5041242;28;20025;-90
2021/03/24 05:33:42;;;;;;;20.10;10.40;;;2.00;99.90;;;;;;5041507;28;20052;-90
2021/03/24 05:36:34;;;;;;;21.05;10.73;;;1.90;99.90;;;;;;5041560;28;20028;-91
2021/03/24 05:39:19;;;;;;;;;;;2.10;99.90;;;;;;5042163;28;20078;-90
2021/03/24 05:41:55;;;;;;;21.05;10.18;;;2.20;99.90;;;;;;5041599;28;19904;-90
2021/03/24 05:44:45;;;;;;;19.05;9.68;;;2.00;99.90;;;;;;5041147;28;20032;-91
2021/03/24 05:47:39;;;;;;;17.23;9.02;;;2.10;99.90;;;;;;5037260;28;20086;-90
2021/03/24 05:50:20;;;;;;;19.25;10.20;;;1.80;99.90;;;;;;5055599;28;20024;-90
2021/03/24 05:53:19;;;;;;;18.65;9.57;;;1.50;99.90;;;;;;5038711;28;20493;-90
2021/03/24 05:55:54;;;;;;;27.85;10.73;;;1.30;99.90;;;;;;5038236;28;20077;-90
2021/03/24 05:58:58;;;;;;;18.75;9.95;;;1.40;99.90;;;;;;5056152;28;20047;-91
2021/03/24 06:01:42;;;;;;;21.25;10.25;;;1.60;99.90;;;;;;5036852;28;20021;-90
2021/03/24 06:04:15;;;;;;;17.17;10.02;;;1.70;99.90;;;;;;5039799;28;20063;-91
2021/03/24 06:06:40;;;;;;;25.13;10.13;;;1.80;99.90;;;;;;5052230;28;20052;-91
2021/03/24 06:09:44;;;;;;;21.30;9.80;;;1.80;99.90;;;;;;5039116;28;20467;-91
2021/03/24 06:12:12;;;;;;;22.42;9.43;;;1.50;99.90;;;;;;5049700;28;20055;-90
2021/03/24 06:14:50;;;;;;;21.95;9.52;;;1.40;99.90;;;;;;5040026;28;20027;-91
2021/03/24 06:17:19;;;;;;;23.30;8.65;;;1.40;99.90;;;;;;5048417;28;20021;-90
2021/03/24 06:20:18;;;;;;;22.85;9.77;;;1.60;99.90;;;;;;5039330;28;20020;-90
2021/03/24 06:23:13;;;;;;;18.67;8.32;;;1.70;99.90;;;;;;5048914;28;20021;-90
2021/03/24 06:25:45;;;;;;;17.40;8.95;;;1.90;99.90;;;;;;5008701;28;20028;-90
2021/03/24 06:28:33;;;;;;;15.18;8.38;;;1.90;99.90;;;;;;5039496;28;20025;-92
2021/03/24 06:31:20;;;;;;;23.20;10.60;;;2.10;99.90;;;;;;5050746;28;20058;-90
2021/03/24 06:38:15;;;;;;;22.80;10.10;;;2.40;99.90;;;;;;5095455;28;20043;-93
2021/03/24 06:41:19;;;;;;;21.38;10.02;;;2.50;99.90;;;;;;5041880;28;20040;-90
2021/03/24 06:43:55;;;;;;;16.83;8.90;;;2.50;99.90;;;;;;5038261;28;20021;-89
2021/03/24 06:47:01;;;;;;;18.38;9.00;;;2.60;99.90;;;;;;5056388;28;20063;-89
2021/03/24 06:49:30;;;;;;;18.35;8.65;;;2.40;99.90;;;;;;5011679;28;20066;-90
2021/03/24 06:52:27;;;;;;;20.02;9.25;;;2.40;99.90;;;;;;5038558;28;20033;-90
2021/03/24 06:55:34;;;;;;;19.52;8.50;;;2.70;99.90;;;;;;5040169;28;20026;-90
2021/03/24 06:58:13;;;;;;;17.98;8.88;;;2.90;99.90;;;;;;5040755;28;20400;-90
2021/03/24 07:01:22;;;;;;;47.63;10.05;;;3.00;99.90;;;;;;5039259;28;20492;-90
2021/03/24 07:03:51;;;;;;;28.75;9.48;;;3.10;99.90;;;;;;5049475;28;20040;-90
2021/03/24 07:10:18;;;;;;;25.20;9.55;;;3.40;99.90;;;;;;5049373;28;20029;-90
2021/03/24 07:12:55;;;;;;;33.75;9.88;;;3.50;99.90;;;;;;5015857;28;20405;-90
2021/03/24 07:15:36;;;;;;;28.42;10.27;;;3.70;99.90;;;;;;5045961;28;20078;-89
2021/03/24 07:18:43;;;;;;;57.90;14.10;;;3.70;99.90;;;;;;5035007;28;20032;-90
2021/03/24 07:21:24;;;;;;;23.05;10.18;;;3.70;99.90;;;;;;5039523;28;20048;-90
2021/03/24 07:24:23;;;;;;;53.65;11.45;;;3.80;99.90;;;;;;5044009;28;20025;-90
2021/03/24 07:27:00;;;;;;;43.92;10.55;;;4.00;99.90;;;;;;5035537;28;20025;-90
2021/03/24 07:29:43;;;;;;;60.92;10.20;;;4.10;99.90;;;;;;5037329;28;20016;-90
2021/03/24 07:32:28;;;;;;;66.80;11.05;;;4.20;99.90;;;;;;5039120;28;20043;-90
2021/03/24 07:35:08;;;;;;;64.95;10.75;;;4.20;99.90;;;;;;5039495;28;20020;-91
2021/03/24 07:38:11;;;;;;;33.63;10.23;;;4.40;99.90;;;;;;5044719;28;20059;-91
2021/03/24 07:40:45;;;;;;;30.33;9.13;;;4.40;99.90;;;;;;5039145;28;20027;-91
2021/03/24 07:43:23;;;;;;;54.08;10.35;;;4.30;99.90;;;;;;5047933;28;20052;-91
2021/03/24 07:46:09;;;;;;;51.80;11.18;;;4.30;99.90;;;;;;5039532;28;20063;-92
2021/03/24 07:48:57;;;;;;;44.95;9.57;;;4.30;99.90;;;;;;5039695;28;20021;-89
2021/03/24 07:51:35;;;;;;;39.80;8.93;;;4.40;99.90;;;;;;5036018;28;20020;-90
2021/03/24 07:54:09;;;;;;;28.70;7.75;;;4.50;99.90;;;;;;5041605;28;20493;-90
2021/03/24 07:56:43;;;;;;;30.48;9.75;;;4.60;99.90;;;;;;5039307;28;20119;-90
2021/03/24 07:59:17;;;;;;;20.48;7.55;;;4.80;99.60;;;;;;5050052;28;20021;-90
2021/03/24 08:02:00;;;;;;;27.90;8.75;;;4.80;98.60;;;;;;5039832;28;20036;-90
2021/03/24 08:04:35;;;;;;;118.10;16.15;;;4.90;98.30;;;;;;5040814;28;20447;-89
2021/03/24 08:07:03;;;;;;;188.45;21.98;;;5.10;98.30;;;;;;5035325;28;20488;-89
2021/03/24 08:09:32;;;;;;;50.33;10.10;;;5.20;97.90;;;;;;5041958;28;20155;-92
2021/03/24 08:12:30;;;;;;;55.30;8.18;;;5.30;98.00;;;;;;5047584;28;20032;-90
2021/03/24 08:15:29;;;;;;;83.50;13.65;;;5.40;96.40;;;;;;5041774;28;20112;-90
2021/03/24 08:18:19;;;;;;;28.52;8.07;;;5.50;96.20;;;;;;5044905;28;20063;-91
2021/03/24 08:21:20;;;;;;;37.20;8.65;;;5.70;95.10;;;;;;5047856;28;20084;-90
2021/03/24 08:24:17;;;;;;;28.63;8.27;;;5.70;93.30;;;;;;5037473;28;20060;-92
2021/03/24 08:26:52;;;;;;;47.28;9.68;;;5.90;92.80;;;;;;5042458;28;20057;-91
2021/03/24 08:29:43;;;;;;;23.13;8.25;;;6.00;92.40;;;;;;5046180;28;20108;-92
2021/03/24 08:32:30;;;;;;;22.25;7.65;;;6.20;91.30;;;;;;5040019;28;20024;-91
2021/03/24 08:35:25;;;;;;;23.85;6.53;;;6.40;89.90;;;;;;5047651;28;20481;-91
2021/03/24 08:38:19;;;;;;;10.75;6.75;;;6.40;84.90;;;;;;5041834;28;20020;-91
2021/03/24 08:41:08;;;;;;;20.42;8.93;;;6.30;86.10;;;;;;5042175;28;20024;-91
2021/03/24 08:44:22;;;;;;;37.08;8.73;;;6.30;85.10;;;;;;5069262;28;20028;-92
2021/03/24 08:47:01;;;;;;;40.63;10.45;;;6.40;86.90;;;;;;4962155;28;20077;-89
2021/03/24 08:49:30;;;;;;;22.10;7.88;;;6.70;85.70;;;;;;4965661;28;20023;-89
2021/03/24 08:52:15;;;;;;;25.58;9.80;;;6.70;84.40;;;;;;5009032;28;20043;-88
2021/03/24 08:54:56;;;;;;;22.60;10.75;;;6.80;84.00;;;;;;5046216;28;20055;-89
2021/03/24 08:57:41;;;;;;;36.42;11.13;;;7.00;82.10;;;;;;5037865;28;20088;-90
2021/03/24 09:00:34;;;;;;;31.60;9.20;;;7.30;81.70;;;;;;5043640;28;20081;-89
2021/03/24 09:03:41;;;;;;;29.75;9.15;;;7.80;78.80;;;;;;5065803;22;20053;-77
2021/03/24 09:06:16;;;;;;;58.85;12.68;;;8.00;76.60;;;;;;5024724;28;20029;-75
2021/03/24 09:08:46;;;;;;;16.70;8.05;;;8.30;76.00;;;;;;5072148;28;20051;-75
2021/03/24 09:11:30;;;;;;;18.00;8.57;;;8.50;74.00;;;;;;5073811;28;20029;-76
2021/03/24 09:14:14;;;;;;;13.65;7.30;;;8.60;72.40;;;;;;5074020;28;20474;-74
2021/03/24 09:17:03;;;;;;;22.05;8.57;;;8.70;73.90;;;;;;5070979;28;20024;-74
2021/03/24 09:19:48;;;;;;;91.78;15.68;;;9.30;75.10;;;;;;5051618;28;20396;-73
2021/03/24 09:22:29;;;;;;;26.35;10.80;;;9.90;69.90;;;;;;5054953;28;20034;-74
2021/03/24 09:25:23;;;;;;;25.80;10.45;;;10.20;66.70;;;;;;5055731;28;20506;-75
2021/03/24 09:28:10;;;;;;;58.80;12.02;;;10.40;64.70;;;;;;5052996;28;20582;-74
2021/03/24 09:30:45;;;;;;;18.38;8.68;;;10.90;65.40;;;;;;5071991;28;20059;-74
2021/03/24 09:33:52;;;;;;;23.35;9.50;;;11.20;64.00;;;;;;5054693;28;20036;-74
2021/03/24 09:36:30;;;;;;;63.15;12.77;;;11.60;64.50;;;;;;5054727;28;20111;-75
2021/03/24 09:38:57;;;;;;;29.00;10.68;;;11.80;62.70;;;;;;5071773;28;20036;-75
2021/03/24 09:41:40;;;;;;;28.27;10.05;;;11.90;61.00;;;;;;5072920;28;20029;-74
2021/03/24 09:44:17;;;;;;;19.58;9.55;;;12.20;59.70;;;;;;5069731;28;20021;-75
2021/03/24 09:46:47;;;;;;;24.45;9.15;;;12.70;60.20;;;;;;5073078;28;20482;-74
2021/03/24 09:49:27;;;;;;;23.77;10.05;;;12.90;58.30;;;;;;5067772;28;20017;-74
2021/03/24 09:52:20;;;;;;;41.20;19.35;;;13.00;56.70;;;;;;5072881;28;20104;-74
2021/03/24 09:55:13;;;;;;;21.77;9.55;;;13.40;56.70;;;;;;5038669;28;20024;-76
2021/03/24 09:58:16;;;;;;;37.03;10.90;;;13.50;55.40;;;;;;5070540;28;20096;-76
2021/03/24 10:00:49;;;;;;;;;;;13.50;55.00;;;;;;5071448;28;20056;-76
2021/03/24 10:03:39;;;;;;;22.55;10.02;;;13.90;54.90;;;;;;5068300;28;19920;-76
2021/03/24 10:06:13;;;;;;;14.88;8.98;;;13.80;53.90;;;;;;5072035;28;20020;-76
2021/03/24 10:08:44;;;;;;;20.02;10.07;;;14.10;53.20;;;;;;5072915;28;20025;-76
2021/03/24 10:11:20;;;;;;;23.58;11.50;;;14.10;52.80;;;;;;5072533;28;20033;-76
2021/03/24 10:13:51;;;;;;;19.27;9.90;;;13.90;52.70;;;;;;5038203;28;20024;-76
2021/03/24 10:16:41;;;;;;;18.63;9.70;;;14.10;52.30;;;;;;5072663;28;20029;-76
2021/03/24 10:19:21;;;;;;;30.38;10.65;;;14.50;52.80;;;;;;5069082;28;20500;-76
2021/03/24 10:21:52;;;;;;;21.02;10.80;;;14.60;51.20;;;;;;5072982;28;20028;-76
2021/03/24 10:24:23;;;;;;;22.95;10.23;;;14.90;51.50;;;;;;5053871;28;20046;-76
2021/03/24 10:27:04;;;;;;;16.92;10.70;;;15.00;51.40;;;;;;5055304;28;20037;-76
2021/03/24 10:29:38;;;;;;;19.70;10.00;;;15.30;49.60;;;;;;5070154;28;20040;-76
2021/03/24 10:32:26;;;;;;;14.77;9.98;;;15.60;49.10;;;;;;5072166;28;20041;-76
2021/03/24 10:34:59;;;;;;;25.25;11.20;;;15.80;47.80;;;;;;5049675;28;20699;-76
2021/03/24 10:38:17;;;;;;;19.23;10.15;;;15.60;48.70;;;;;;5071122;28;20431;-76
2021/03/24 10:40:46;;;;;;;14.57;9.93;;;16.00;48.40;;;;;;5045969;28;20056;-76
2021/03/24 10:43:18;;;;;;;14.52;8.70;;;16.20;47.00;;;;;;5070789;28;20430;-76
2021/03/24 10:45:50;;;;;;;30.13;10.77;;;16.30;48.30;;;;;;5071298;28;20024;-76
2021/03/24 10:48:33;;;;;;;45.88;10.63;;;16.50;47.20;;;;;;5049934;28;20021;-76
2021/03/24 10:51:11;;;;;;;28.00;9.73;;;16.50;47.90;;;;;;5053537;28;20028;-76
2021/03/24 10:53:37;;;;;;;14.73;9.10;;;16.40;46.80;;;;;;5068766;28;20020;-76
2021/03/24 10:56:21;;;;;;;21.77;9.77;;;16.00;46.80;;;;;;5053158;28;20028;-76
2021/03/24 10:59:11;;;;;;;41.25;10.38;;;16.20;48.10;;;;;;5033122;28;20031;-76
2021/03/24 11:01:43;;;;;;;37.60;9.70;;;16.60;46.70;;;;;;5071334;28;20489;-76
2021/03/24 11:04:27;;;;;;;;;;;17.00;46.80;;;;;;5054324;28;20040;-76
2021/03/24 11:07:03;;;;;;;23.20;9.70;;;17.20;46.30;;;;;;5053577;28;19908;-76
2021/03/24 11:10:17;;;;;;;16.55;8.63;;;17.00;44.50;;;;;;5071351;28;20111;-76
2021/03/24 11:12:55;;;;;;;23.15;8.35;;;17.10;45.50;;;;;;5032754;28;20025;-76
2021/03/24 11:15:26;;;;;;;18.35;8.88;;;17.10;46.00;;;;;;5042059;28;20016;-78
2021/03/24 11:18:04;;;;;;;25.20;8.77;;;17.30;45.20;;;;;;5071982;28;20119;-76
2021/03/24 11:20:42;;;;;;;35.40;9.82;;;17.60;44.20;;;;;;5068061;28;20270;-76
2021/03/24 11:23:22;;;;;;;14.85;7.72;;;17.50;44.30;;;;;;5071118;28;20443;-76
2021/03/24 11:25:58;;;;;;;13.65;6.90;;;17.50;43.60;;;;;;5068150;28;20032;-76
2021/03/24 11:28:42;;;;;;;25.55;8.27;;;17.70;43.50;;;;;;5053086;28;20079;-76
2021/03/24 11:31:14;;;;;;;13.93;7.40;;;17.70;43.30;;;;;;5067071;28;20110;-76
2021/03/24 11:33:54;;;;;;;23.05;7.68;;;18.00;44.60;;;;;;5036243;28;20031;-76
2021/03/24 11:36:23;;;;;;;30.42;8.70;;;18.20;42.80;;;;;;5070920;28;20047;-76
2021/03/24 11:39:04;;;;;;;29.77;8.90;;;18.70;42.90;;;;;;5036509;28;20503;-76
2021/03/24 11:41:33;;;;;;;12.70;6.68;;;18.80;42.70;;;;;;5066076;28;20032;-76
2021/03/24 11:44:16;;;;;;;15.45;6.93;;;18.90;41.40;;;;;;5071053;28;20024;-76
2021/03/24 11:46:41;;;;;;;15.80;6.95;;;19.00;40.40;;;;;;5052857;28;20021;-76
2021/03/24 11:49:16;;;;;;;30.08;6.88;;;18.90;40.60;;;;;;5049472;28;20433;-76
2021/03/24 11:52:08;;;;;;;15.85;6.13;;;18.80;41.20;;;;;;5053150;28;20024;-76
2021/03/24 11:54:40;;;;;;;37.08;9.57;;;19.20;41.10;;;;;;5069148;28;20028;-76
2021/03/24 11:57:40;;;;;;;28.67;8.18;;;19.30;40.40;;;;;;5052874;28;20098;-76
2021/03/24 12:00:18;;;;;;;25.35;9.07;;;19.10;40.10;;;;;;5064373;28;20040;-76
2021/03/24 12:02:59;;;;;;;13.35;6.93;;;18.60;40.70;;;;;;5052920;28;20035;-76
2021/03/24 12:06:16;;;;;;;23.55;8.02;;;18.50;40.90;;;;;;5065402;28;20379;-76
2021/03/24 12:09:04;;;;;;;14.52;6.82;;;18.70;41.30;;;;;;5029148;28;20032;-76
2021/03/24 12:11:33;;;;;;;15.18;7.35;;;18.70;41.20;;;;;;5052499;28;20020;-76
2021/03/24 12:14:14;;;;;;;13.80;6.72;;;18.70;40.00;;;;;;5052746;28;20050;-76
2021/03/24 12:16:56;;;;;;;10.63;6.75;;;18.40;41.60;;;;;;5070173;28;20086;-76
2021/03/24 12:19:37;;;;;;;15.27;6.72;;;18.30;42.40;;;;;;5052621;28;20055;-76
2021/03/24 12:22:03;;;;;;;23.52;6.35;;;18.90;41.50;;;;;;5070171;28;20025;-76
2021/03/24 12:24:38;;;;;;;16.13;6.43;;;19.20;41.00;;;;;;5052680;28;20056;-76
2021/03/24 12:27:17;;;;;;;14.68;6.22;;;18.90;41.00;;;;;;5048785;28;20070;-76
2021/03/24 12:29:54;;;;;;;61.40;10.45;;;18.80;40.10;;;;;;5052840;28;20119;-76
2021/03/24 12:32:27;;;;;;;15.40;5.88;;;18.60;41.10;;;;;;5048816;28;20028;-76
2021/03/24 12:34:54;;;;;;;24.70;6.55;;;18.40;40.60;;;;;;5070661;28;20031;-76
2021/03/24 12:37:25;;;;;;;13.95;6.32;;;17.80;41.50;;;;;;5070433;28;20027;-76
2021/03/24 12:39:53;;;;;;;14.68;5.05;;;17.90;42.00;;;;;;5070283;28;20027;-76
2021/03/24 12:42:22;;;;;;;17.13;6.20;;;18.00;42.50;;;;;;5070681;28;20068;-76
2021/03/24 12:44:48;;;;;;;13.40;5.82;;;17.70;41.00;;;;;;5052220;28;20028;-76
2021/03/24 12:47:38;;;;;;;10.25;5.32;;;17.90;42.20;;;;;;5070872;28;20020;-76
2021/03/24 12:50:06;;;;;;;8.60;4.05;;;17.50;41.10;;;;;;5066483;28;20118;-76
2021/03/24 12:52:45;;;;;;;6.65;3.00;;;17.30;40.50;;;;;;5053667;28;20388;-75
2021/03/24 12:55:12;;;;;;;12.07;4.85;;;17.10;40.60;;;;;;5069994;28;20037;-76
2021/03/24 12:57:44;;;;;;;11.70;4.35;;;17.30;39.80;;;;;;5070054;28;20020;-75
2021/03/24 13:00:13;;;;;;;;;;;17.40;40.20;;;;;;5035414;28;20017;-76
2021/03/24 13:03:37;;;;;;;12.80;3.97;;;17.30;39.50;;;;;;5055601;28;19916;-76
2021/03/24 13:06:28;;;;;;;7.78;3.58;;;16.60;40.30;;;;;;5016401;28;20550;-75
2021/03/24 13:09:24;;;;;;;10.38;3.60;;;16.60;40.50;;;;;;5043411;28;20052;-76
2021/03/24 13:12:04;;;;;;;8.20;4.30;;;16.90;39.10;;;;;;5072930;28;20526;-76
2021/03/24 13:14:40;;;;;;;8.32;4.07;;;16.80;40.40;;;;;;5073804;28;20091;-75
2021/03/24 13:17:21;;;;;;;8.18;3.90;;;16.50;40.60;;;;;;5073190;28;20028;-75
2021/03/24 13:20:06;;;;;;;16.20;3.92;;;15.80;41.60;;;;;;5073633;28;20078;-76
2021/03/24 13:22:47;;;;;;;12.70;4.35;;;15.70;42.40;;;;;;5051848;28;20078;-75
2021/03/24 13:25:42;;;;;;;12.02;4.60;;;16.10;41.80;;;;;;5071427;28;20115;-76
2021/03/24 13:28:35;;;;;;;9.35;4.53;;;16.10;40.90;;;;;;5071528;28;20028;-76
2021/03/24 13:31:22;;;;;;;17.13;5.15;;;16.00;42.40;;;;;;5037536;28;20025;-76
2021/03/24 13:33:59;;;;;;;16.45;4.55;;;16.00;42.70;;;;;;5071142;28;20086;-76
2021/03/24 13:36:46;;;;;;;9.43;4.57;;;15.90;42.40;;;;;;5068558;28;20025;-76
2021/03/24 13:39:22;;;;;;;12.80;4.72;;;15.80;41.90;;;;;;5071866;28;20021;-75
2021/03/24 13:42:01;;;;;;;11.63;4.10;;;15.90;43.10;;;;;;5072538;28;20059;-76
2021/03/24 13:44:36;;;;;;;10.18;4.30;;;16.00;42.70;;;;;;5055251;28;20491;-74
2021/03/24 13:47:07;;;;;;;13.48;4.47;;;16.10;41.00;;;;;;5050817;28;20025;-74
2021/03/24 13:50:02;;;;;;;8.38;4.00;;;15.80;42.80;;;;;;5055009;28;20032;-75
2021/03/24 13:52:41;;;;;;;11.02;4.40;;;15.60;42.90;;;;;;5044989;28;20063;-74
2021/03/24 13:55:35;;;;;;;18.73;4.70;;;15.80;43.20;;;;;;5068055;28;20028;-75
2021/03/24 13:58:45;;;;;;;8.75;4.20;;;15.80;43.40;;;;;;5071938;28;20027;-74
2021/03/24 14:01:38;;;;;;;8.02;4.35;;;16.00;43.50;;;;;;5052428;28;20083;-74